Latest Coastal Weather Observations for Ballina

IDN60701

Issued at 7:21 pm EST Sunday 9 August 2020 (issued every 10 minutes, with the page automatically refreshed every 10 minutes)

About coastal observations | Map of coastal stations | Coastal observations for NSW | Marine services | Other Formats
Station Details ID: 058198 Name: BALLINA AIRPORT AWS Lat: -28.84 Lon: 153.56 Height: 1.3 m
Data from the previous 72 hours. | See also: Recent months at Ballina
Date/Time
EST
Wind Sea
Height
m
Swell Vis
km
Cloud Weather Temp
°C
Press
hPa
Rain since
9am
mm
Dir  Spd
kts
Gust
kts
Height
m
Period
s
Dir
09/07:00pm W 9 13 - - - - 10 Partly cloudy - 13.1 1011.7 0.0
09/06:30pm W 9 17 - - - - 10 Partly cloudy - 14.2 1011.5 0.0
09/06:00pm W 9 10 - - - - 10 - - 12.7 1010.9 0.0
09/05:30pm WNW 6 9 - - - - 10 Partly cloudy - 14.7 1010.5 0.0
09/05:00pm W 8 12 - - - - 10 - - 15.6 1010.0 0.0
09/04:30pm WNW 13 16 - - - - 10 - - 17.2 1009.7 0.0
09/04:00pm WNW 14 19 - - - - 10 Partly cloudy - 17.2 1009.4 0.0
09/03:30pm WNW 10 15 - - - - 10 - - 18.4 1009.4 0.0
09/03:00pm W 14 23 - - - - 10 - - 18.1 1009.3 0.0
09/02:30pm WNW 11 19 - - - - 10 - - 18.2 1009.8 0.0
09/02:00pm W 13 18 - - - - 10 Partly cloudy - 18.0 1010.3 0.0
09/01:30pm W 15 20 - - - - 10 Partly cloudy - 18.0 1010.7 0.0
09/01:00pm W 15 21 - - - - 10 Partly cloudy - 17.6 1011.1 0.0
09/12:30pm W 15 21 - - - - 10 - - 16.8 1011.3 0.0
09/12:00pm WNW 18 25 - - - - 10 Mostly cloudy - 16.0 1011.8 0.0
09/11:30am W 18 24 - - - - 10 - - 16.4 1012.3 0.0
09/11:00am WNW 18 27 - - - - 10 - - 15.9 1012.7 0.0
09/10:30am WNW 16 23 - - - - 10 - - 15.6 1013.2 0.0
09/10:00am W 17 24 - - - - 10 - - 15.4 1013.5 0.0
09/09:30am W 13 17 - - - - 10 - - 14.9 1013.7 0.0
09/09:00am W 13 19 - - - - 10 - - 14.2 1013.9 0.2
09/08:30am W 12 16 - - - - 10 - - 13.7 1013.9 0.2
09/08:00am WSW 8 11 - - - - 10 - - 13.0 1014.0 0.2
09/07:30am W 10 14 - - - - 10 - - 12.1 1013.8 0.2
09/07:00am W 7 9 - - - - 10 - - 10.8 1013.6 0.2
09/06:30am WSW 5 10 - - - - 10 - - 10.8 1013.5 0.2
09/06:00am WSW 8 13 - - - - 10 - - 10.5 1013.1 0.2
09/05:30am W 9 15 - - - - 10 - - 11.1 1012.8 0.2
09/05:00am W 8 11 - - - - 10 - - 11.3 1012.7 0.2
09/04:30am WSW 11 18 - - - - 10 - - 11.9 1012.3 0.2
09/04:00am W 12 16 - - - - 10 - - 11.9 1012.0 0.2
09/03:30am W 9 12 - - - - 10 - - 11.7 1012.0 0.2
09/03:00am W 8 11 - - - - 10 - - 12.5 1012.0 0.2
09/02:30am W 10 17 - - - - 10 - - 12.5 1012.2 0.2
09/02:00am W 9 11 - - - - 10 - - 12.2 1012.3 0.2
09/01:30am WSW 5 8 - - - - 10 - - 12.4 1012.6 0.2
09/01:00am WSW 5 8 - - - - 10 - - 12.9 1012.7 0.2
09/12:30am W 9 12 - - - - 10 - - 13.2 1012.9 0.2
09/12:00am W 8 12 - - - - 10 - - 13.6 1012.8 0.2
 
Date/Time
EST
Wind Sea
Height
m
Swell Vis
km
Cloud Weather Temp
°C
Press
hPa
Rain since
9am
mm
Dir  Spd
kts
Gust
kts
Height
m
Period
s
Dir
08/11:30pm W 9 12 - - - - 10 - - 13.8 1012.9 0.2
08/11:00pm W 8 12 - - - - 10 - - 15.0 1012.9 0.2
08/10:30pm W 11 16 - - - - 10 - - 15.2 1012.9 0.2
08/10:00pm WNW 10 13 - - - - 10 - - 15.3 1012.9 0.2
08/09:30pm WNW 11 14 - - - - 10 - - 16.0 1012.8 0.2
08/09:00pm WNW 10 13 - - - - 10 Cloudy - 16.1 1013.2 0.2
08/08:30pm WNW 10 12 - - - - 10 - - 16.2 1012.7 0.2
08/08:00pm WNW 9 13 - - - - 10 - - 17.0 1012.7 0.2
08/07:30pm WNW 9 12 - - - - 10 - - 17.3 1012.1 0.2
08/07:00pm NW 6 7 - - - - 10 - - 16.6 1012.0 0.2
08/06:30pm WNW 7 10 - - - - 10 - - 17.8 1011.8 0.2
08/06:00pm WNW 10 12 - - - - 10 - - 18.4 1011.6 0.2
08/05:30pm WNW 8 12 - - - - 10 - - 18.7 1011.5 0.2
08/05:00pm WNW 9 14 - - - - 10 - - 20.5 1011.1 0.2
08/04:30pm W 11 17 - - - - 10 - - 21.3 1010.6 0.2
08/04:00pm NW 10 16 - - - - 10 - - 22.1 1010.4 0.2
08/03:30pm N 5 7 - - - - 10 Partly cloudy - 20.6 1010.3 0.2
08/03:00pm NNW 6 8 - - - - 10 Mostly cloudy - 21.1 1010.3 0.2
08/02:30pm WNW 8 11 - - - - 10 Partly cloudy - 22.4 1010.5 0.2
08/02:00pm SW 7 10 - - - - 10 Partly cloudy - 22.6 1010.6 0.2
08/01:30pm E 5 8 - - - - 10 Partly cloudy - 21.5 1010.8 0.2
08/01:00pm NE 5 8 - - - - 10 Partly cloudy - 21.1 1011.3 0.0
08/12:30pm NNE 6 13 - - - - 10 Partly cloudy - 21.1 1012.0 0.0
08/12:00pm NNW 5 8 - - - - 10 Mostly clear - 21.1 1012.5 0.0
08/11:30am N 5 7 - - - - 10 Partly cloudy - 21.0 1012.7 0.0
08/11:00am NNW 4 5 - - - - 10 - - 19.8 1013.0 0.0
08/10:30am NNW 3 7 - - - - 10 - - 19.0 1013.5 0.0
08/10:00am N 4 6 - - - - 10 Partly cloudy - 18.2 1013.9 0.0
08/09:30am N 1 3 - - - - 10 Partly cloudy - 16.4 1014.2 0.0
08/09:05am N 4 5 - - - - 10 Cloudy - 15.4 1014.7 0.0
08/09:00am N 4 5 - - - - 10 Cloudy - 15.5 1014.8 34.8
08/08:30am N 4 5 - - - - 10 Cloudy - 14.6 1014.7 34.8
08/08:00am N 5 6 - - - - 10 Cloudy - 14.1 1014.5 34.8
08/07:30am N 5 7 - - - - 10 Cloudy - 13.7 1014.5 34.8
08/07:04am N 5 7 - - - - 10 Cloudy - 13.6 1014.3 34.8
08/07:00am N 5 6 - - - - 10 Cloudy - 13.5 1014.2 34.8
08/06:42am N 4 5 - - - - 5 Cloudy - 13.6 1014.0 34.8
08/06:36am N 4 5 - - - - 8 Cloudy - 13.6 1014.1 34.8
08/06:30am N 4 5 - - - - 7 Cloudy - 13.5 1014.1 34.8
08/06:03am N 3 6 - - - - 5 Cloudy - 13.6 1014.3 34.8
08/06:00am N 1 4 - - - - 6 Cloudy - 13.6 1014.3 34.8
08/05:30am N 3 4 - - - - 10 Partly cloudy - 13.5 1014.0 34.8
08/05:29am N 3 4 - - - - 10 Partly cloudy - 13.5 1014.0 34.8
08/05:07am N 2 4 - - - - 5 Cloudy - 13.5 1013.9 34.8
08/05:00am N 2 3 - - - - 6 Cloudy - 13.5 1013.8 34.8
08/04:30am N 4 5 - - - - 9 Cloudy - 13.5 1013.7 34.8
08/04:00am N 4 5 - - - - 10 Cloudy - 13.6 1013.8 34.8
08/03:30am N 3 4 - - - - 10 Cloudy - 13.6 1014.1 34.8
08/03:00am N 4 5 - - - - 10 Cloudy - 13.5 1014.2 34.8
08/02:30am N 5 6 - - - - 10 Cloudy - 13.6 1014.4 34.8
08/02:00am N 5 7 - - - - 10 Partly cloudy - 13.6 1014.4 34.8
08/01:52am N 4 5 - - - - 9 Partly cloudy - 13.7 1014.5 34.8
08/01:32am N 3 5 - - - - 5 Cloudy - 13.7 1014.9 34.8
08/01:30am N 4 5 - - - - 10 Cloudy - 13.7 1014.9 34.8
08/01:00am N 4 5 - - - - 10 Cloudy - 13.7 1015.1 34.8
08/12:30am N 4 5 - - - - 9 Partly cloudy - 13.9 1015.4 34.8
08/12:24am N 4 5 - - - - 8 Partly cloudy - 13.9 1015.5 34.8
08/12:00am N 4 6 - - - - 4 Mostly cloudy Recent precip. 14.0 1015.7 34.6
 
Date/Time
EST
Wind Sea
Height
m
Swell Vis
km
Cloud Weather Temp
°C
Press
hPa
Rain since
9am
mm
Dir  Spd
kts
Gust
kts
Height
m
Period
s
Dir
07/11:59pm N 4 6 - - - - 5 Cloudy - 14.0 1015.7 34.6
07/11:30pm N 4 5 - - - - 8 Partly cloudy - 14.0 1015.9 34.4
07/11:21pm N 5 7 - - - - 7 Partly cloudy - 14.0 1015.9 34.4
07/11:00pm N 4 6 - - - - 4 Cloudy - 14.1 1016.1 34.4
07/10:51pm N 5 6 - - - - 5 Cloudy - 14.1 1016.1 34.4
07/10:30pm N 4 6 - - - - 10 Partly cloudy - 14.0 1016.4 34.4
07/10:00pm NNE 3 6 - - - - 10 Cloudy - 14.0 1016.1 34.4
07/09:30pm NNE 5 6 - - - - 10 Partly cloudy - 13.8 1016.2 34.4
07/09:21pm NNE 4 5 - - - - 10 Partly cloudy - 13.9 1016.5 34.4
07/09:00pm NNE 5 6 - - - - 10 Cloudy - 13.6 1017.1 34.4
07/08:30pm E 5 6 - - - - 10 Partly cloudy - 13.5 1016.7 34.4
07/08:00pm E 5 6 - - - - 10 Partly cloudy - 13.7 1016.7 34.4
07/07:30pm ESE 1 3 - - - - 10 Partly cloudy - 13.8 1016.8 34.4
07/07:23pm ESE 1 4 - - - - 10 Partly cloudy - 13.8 1016.7 34.4
07/07:00pm WNW 4 5 - - - - 4 Cloudy - 14.1 1018.0 34.4
07/06:45pm W 5 7 - - - - 5 Cloudy - 14.2 1017.9 34.0
07/06:30pm W 6 7 - - - - 10 Cloudy - 14.4 1018.0 33.6
07/06:21pm WNW 5 6 - - - - 10 Partly cloudy - 14.6 1017.7 33.6
07/06:00pm W 5 6 - - - - 10 Cloudy Recent precip. 14.7 1017.4 33.6
07/05:50pm NNW 2 5 - - - - 9 Partly cloudy - 14.8 1017.5 33.6
07/05:30pm W 8 13 - - - - 5 Partly cloudy - 14.9 1017.4 33.0
07/05:17pm W 12 15 - - - - 5 Partly cloudy - 15.1 1017.2 32.0
07/05:00pm W 8 11 - - - - 10 Cloudy - 15.1 1017.1 31.0
07/04:31pm W 6 7 - - - - 10 Partly cloudy - 15.0 1016.2 31.0
07/04:30pm W 6 7 - - - - 10 Partly cloudy - 15.0 1016.1 31.0
07/04:00pm W 6 8 - - - - 10 Partly cloudy - 14.9 1015.2 31.0
07/03:30pm WNW 5 8 - - - - 10 Partly cloudy - 14.7 1015.3 31.0
07/03:00pm WNW 6 11 - - - - 10 Mostly cloudy Recent precip. 14.2 1015.4 30.6
07/02:30pm WSW 9 11 - - - - 10 Partly cloudy - 14.3 1014.8 30.4
07/02:01pm W 8 12 - - - - 10 Partly cloudy - 14.2 1015.0 29.8
07/02:00pm W 9 12 - - - - 10 Partly cloudy - 14.2 1014.9 29.8
07/01:30pm WSW 8 11 - - - - 4 Partly cloudy - 14.1 1014.9 27.8
07/01:26pm WSW 7 10 - - - - 5 Partly cloudy - 14.2 1015.1 27.2
07/01:25pm W 6 9 - - - - 5 Partly cloudy - 14.3 1015.1 27.2
07/01:10pm ESE 3 9 - - - - 10 Cloudy - 13.9 1015.1 26.4
07/01:00pm WSW 8 11 - - - - 5 Partly cloudy - 14.0 1015.0 26.4
07/12:50pm W 9 12 - - - - 5 Partly cloudy - 13.0 1015.1 25.6
07/12:47pm W 9 12 - - - - 10 Partly cloudy - 13.0 1015.2 25.0
07/12:35pm WNW 7 11 - - - - 5 Partly cloudy - 12.8 1015.7 24.8
07/12:30pm W 6 8 - - - - 7 Partly cloudy - 12.7 1015.5 24.2
07/12:29pm W 6 8 - - - - 7 Partly cloudy - 12.7 1015.6 24.2
07/12:25pm SW 5 7 - - - - 7 Partly cloudy - 12.8 1015.5 24.0
07/12:07pm W 5 7 - - - - 5 Partly cloudy - 12.7 1016.7 23.2
07/12:00pm WNW 7 12 - - - - 9 Cloudy Rain 12.8 1017.0 22.8
07/11:56am WSW 7 12 - - - - 10 Partly cloudy - 12.6 1017.2 22.8
07/11:30am WSW 7 11 - - - - 4 Partly cloudy - 12.5 1018.2 19.8
07/11:00am W 10 12 - - - - 4 Partly cloudy - 12.5 1018.6 15.2
07/10:30am W 8 15 - - - - 1 Partly cloudy - 15.6 1019.0 7.2
07/10:14am WNW 9 13 - - - - 5 Cloudy - 15.1 1019.1 0.4
07/10:00am ENE 8 15 - - - - 10 Cloudy - 16.6 1019.3 0.0
07/09:30am ESE 12 16 - - - - 10 Cloudy - 17.9 1019.2 0.0
07/09:00am ESE 11 16 - - - - 10 Mostly cloudy - 17.7 1019.1 0.0
07/08:30am ESE 11 17 - - - - 10 Partly cloudy - 18.0 1019.3 0.0
07/08:00am ESE 11 15 - - - - 10 Partly cloudy - 18.0 1019.6 0.0
07/07:30am ESE 9 13 - - - - 10 Cloudy - 17.6 1019.6 0.0
07/07:00am ESE 8 12 - - - - 10 Cloudy - 17.4 1019.8 0.0
07/06:30am SE 9 13 - - - - 10 Partly cloudy - 17.4 1019.5 0.0
07/06:00am SE 8 12 - - - - 10 Cloudy - 17.3 1019.4 0.0
07/05:30am SE 8 11 - - - - 10 Cloudy - 17.3 1019.3 0.0
07/05:00am SE 8 10 - - - - 10 Cloudy - 17.2 1019.1 0.0
07/04:30am SE 7 11 - - - - 10 Cloudy - 16.8 1019.1 0.0
07/04:00am SE 8 11 - - - - 10 Partly cloudy - 16.8 1019.0 0.0
07/03:30am SE 8 10 - - - - 10 Partly cloudy - 16.2 1018.9 0.0
07/03:00am WSW 1 3 - - - - 10 Cloudy - 13.5 1019.3 0.0
07/02:30am WSW 3 5 - - - - 10 Cloudy - 13.5 1019.5 0.0
07/02:00am W 5 6 - - - - 10 Cloudy - 13.3 1019.6 0.0
07/01:30am W 5 6 - - - - 10 Cloudy - 13.1 1019.8 0.0
07/01:00am WSW 4 5 - - - - 10 Cloudy - 12.9 1020.0 0.0
07/12:30am W 3 4 - - - - 10 Cloudy - 12.6 1020.0 0.0
07/12:00am W 3 3 - - - - 10 Cloudy - 11.8 1020.0 0.0
 
Date/Time
EST
Wind Sea
Height
m
Swell Vis
km
Cloud Weather Temp
°C
Press
hPa
Rain since
9am
mm
Dir  Spd
kts
Gust
kts
Height
m
Period
s
Dir
06/11:30pm W 3 4 - - - - 10 Partly cloudy - 11.2 1020.2 0.0
06/11:00pm W 5 6 - - - - 10 - - 10.5 1020.0 0.0
06/10:30pm W 3 5 - - - - 10 - - 10.1 1019.8 0.0
06/10:00pm W 3 4 - - - - 10 - - 10.8 1019.8 0.0
06/09:30pm WSW 2 5 - - - - 10 - - 10.6 1019.8 0.0
06/09:00pm WSW 3 4 - - - - 10 - - 10.3 1019.7 0.0
06/08:30pm SSE 4 5 - - - - 10 - - 11.1 1019.5 0.0
06/08:00pm ESE 2 3 - - - - 10 - - 11.0 1019.2 0.0
06/07:30pm ESE 3 4 - - - - 10 - - 12.0 1019.0 0.0

Other formats

Comma delimited format used in spreadsheet applications
http://www.bom.gov.au/fwo/IDN60701/IDN60701.94596.axf

JavaScript Object Notation format (JSON) in row-major order
http://www.bom.gov.au/fwo/IDN60701/IDN60701.94596.json

Data quality

Most of these data are generated automatically and are frequently updated. Quality checks on data are not normally performed. It is possible for incorrect values to appear. Refer to information at About Latest Weather Observations and please check the disclaimer before using these data.